सभी
South West Rocks Airport YSWK मौसम
There is no TAF data available at YSWK or any nearby airports.
There is no METAR data available at YSWK. Showing METAR data for YKMP (18 mi SW).
Recent KPS METAR history (no data for YSWK)
| Date | Time (AEST) | Flight Rules | Wind Dir. | Speed | Type | Height AGL (ft) | Visibility | Temp (°C) | Temp (°F) | Dew Point (°C) | Dew Point (°F) | Rel. Humid. | Pressure | Density Altitude | Remarks |
|---|---|---|---|---|---|---|---|---|---|---|---|---|---|---|---|
| 03-मई | 13:00 | n/a | 30° | 5 kt | Missing | 23° | 73° | 17° | 62° | 69% | 1021 mb | 784 ft | |||
| 03-मई | 12:00 | n/a | 360° | 3 kt | Missing | 21° | 69° | 17° | 62° | 78% | 1022 mb | 514 ft | |||
| 03-मई | 11:00 | n/a | 340° | 3 kt | Missing | 21° | 69° | 18° | 64° | 83% | 1023 mb | 485 ft | |||
| 03-मई | 10:00 | n/a | 310° | 3 kt | Missing | 20° | 68° | 17° | 62° | 83% | 1023 mb | 365 ft | |||
| 03-मई | 09:00 | n/a | 270° | 5 kt | Missing | 18° | 64° | 17° | 62° | 94% | 1023 mb | 125 ft | |||
| 03-मई | 08:00 | n/a | 280° | 4 kt | Missing | 17° | 62° | 17° | 62° | 100% | 1023 mb | 5 ft | |||
| 03-मई | 07:00 | n/a | 240° | 4 kt | Missing | 16° | 60° | 15° | 59° | 94% | 1022 mb | -86 ft | |||
| 03-मई | 06:00 | n/a | 270° | 4 kt | Missing | 16° | 60° | 15° | 59° | 94% | 1022 mb | -86 ft | |||
| 03-मई | 05:00 | n/a | 260° | 4 kt | Missing | 16° | 60° | 15° | 59° | 94% | 1022 mb | -86 ft | |||
| 03-मई | 04:00 | n/a | 240° | 4 kt | Missing | 16° | 60° | 15° | 59° | 94% | 1022 mb | -86 ft | |||
| 03-मई | 03:00 | n/a | 240° | 4 kt | Missing | 16° | 60° | 16° | 60° | 100% | 1022 mb | -86 ft | |||
| 03-मई | 02:00 | n/a | 270° | 2 kt | Missing | 15° | 59° | 15° | 59° | 100% | 1022 mb | -206 ft | |||
| 03-मई | 01:00 | n/a | 270° | 4 kt | Missing | 15° | 59° | 15° | 59° | 100% | 1023 mb | -235 ft | |||
| 03-मई | 00:00 | n/a | 280° | 3 kt | Missing | 17° | 62° | 16° | 60° | 94% | 1023 mb | 5 ft | |||
| 02-मई | 23:00 | n/a | 290° | 4 kt | Missing | 18° | 64° | 16° | 60° | 88% | 1024 mb | 95 ft | |||
| 02-मई | 22:00 | n/a | 60° | 8 kt | Missing | 20° | 68° | 16° | 60° | 78% | 1024 mb | 335 ft | |||
| 02-मई | 21:00 | n/a | 360° | 8 kt | Missing | 19° | 66° | 16° | 60° | 83% | 1024 mb | 215 ft | |||
| 02-मई | 20:00 | n/a | 300° | 3 kt | Missing | 18° | 64° | 17° | 62° | 94% | 1024 mb | 95 ft | |||
| 02-मई | 19:00 | n/a | 230° | 3 kt | Missing | 17° | 62° | 16° | 60° | 94% | 1023 mb | 5 ft | |||
| 02-मई | 18:00 | n/a | Calm | Missing | 18° | 64° | 16° | 60° | 88% | 1023 mb | 125 ft | ||||
| 02-मई | 17:00 | n/a | 80° | 3 kt | Missing | 21° | 69° | 16° | 60° | 73% | 1022 mb | 514 ft | |||
| 02-मई | 16:00 | n/a | 50° | 5 kt | Missing | 22° | 71° | 16° | 60° | 69% | 1022 mb | 634 ft | |||
| 02-मई | 15:00 | n/a | 50° | 8 kt | Missing | 23° | 73° | 16° | 60° | 65% | 1022 mb | 754 ft | |||
| 02-मई | 14:00 | n/a | 100° | 9 kt | Missing | 25° | 77° | 17° | 62° | 61% | 1022 mb | 994 ft |
लॉगिन
| Your browser is unsupported. अपना ब्राऊजर अपग्रेड करें |
